sensor_id;sensor_type;location;lat;lon;timestamp;P1;durP1;ratioP1;P2;durP2;ratioP2
17141;SDS011;32805;53.556;9.944;2023-02-28T00:02:16;2.00;;;1.23;;
17141;SDS011;32805;53.556;9.944;2023-02-28T00:04:44;3.00;;;1.70;;
17141;SDS011;32805;53.556;9.944;2023-02-28T00:07:12;3.30;;;1.63;;
17141;SDS011;32805;53.556;9.944;2023-02-28T00:09:40;2.67;;;1.67;;
17141;SDS011;32805;53.556;9.944;2023-02-28T00:12:09;3.78;;;1.95;;
17141;SDS011;32805;53.556;9.944;2023-02-28T00:14:37;3.83;;;1.77;;
17141;SDS011;32805;53.556;9.944;2023-02-28T00:17:04;3.13;;;1.73;;
17141;SDS011;32805;53.556;9.944;2023-02-28T00:19:32;2.38;;;1.77;;
17141;SDS011;32805;53.556;9.944;2023-02-28T00:21:59;3.33;;;1.92;;
17141;SDS011;32805;53.556;9.944;2023-02-28T00:24:27;3.38;;;1.52;;
17141;SDS011;32805;53.556;9.944;2023-02-28T00:26:55;4.07;;;1.90;;
17141;SDS011;32805;53.556;9.944;2023-02-28T00:29:24;3.38;;;1.45;;
17141;SDS011;32805;53.556;9.944;2023-02-28T00:31:51;1.30;;;1.05;;
17141;SDS011;32805;53.556;9.944;2023-02-28T00:34:19;3.00;;;1.45;;
17141;SDS011;32805;53.556;9.944;2023-02-28T00:36:46;3.15;;;1.20;;
17141;SDS011;32805;53.556;9.944;2023-02-28T00:39:16;2.47;;;1.50;;
17141;SDS011;32805;53.556;9.944;2023-02-28T00:41:44;3.10;;;1.45;;
17141;SDS011;32805;53.556;9.944;2023-02-28T00:44:12;1.50;;;1.30;;
17141;SDS011;32805;53.556;9.944;2023-02-28T00:46:41;3.75;;;1.42;;
17141;SDS011;32805;53.556;9.944;2023-02-28T00:49:09;2.72;;;2.05;;
17141;SDS011;32805;53.556;9.944;2023-02-28T00:51:36;3.20;;;1.80;;
17141;SDS011;32805;53.556;9.944;2023-02-28T00:54:04;4.05;;;1.77;;
17141;SDS011;32805;53.556;9.944;2023-02-28T00:56:32;4.10;;;1.52;;
17141;SDS011;32805;53.556;9.944;2023-02-28T00:58:59;3.25;;;1.92;;
17141;SDS011;32805;53.556;9.944;2023-02-28T01:01:27;7.97;;;2.85;;
17141;SDS011;32805;53.556;9.944;2023-02-28T01:03:56;2.40;;;1.90;;
17141;SDS011;32805;53.556;9.944;2023-02-28T01:06:24;3.55;;;1.88;;
17141;SDS011;32805;53.556;9.944;2023-02-28T01:08:51;5.70;;;2.45;;
17141;SDS011;32805;53.556;9.944;2023-02-28T01:11:19;1.98;;;1.75;;
17141;SDS011;32805;53.556;9.944;2023-02-28T01:13:47;4.22;;;2.30;;
17141;SDS011;32805;53.556;9.944;2023-02-28T01:16:14;3.65;;;2.13;;
17141;SDS011;32805;53.556;9.944;2023-02-28T01:18:43;4.40;;;2.00;;
17141;SDS011;32805;53.556;9.944;2023-02-28T01:21:14;3.75;;;2.13;;
17141;SDS011;32805;53.556;9.944;2023-02-28T01:23:44;7.20;;;2.22;;
17141;SDS011;32805;53.556;9.944;2023-02-28T01:26:12;5.15;;;1.83;;
17141;SDS011;32805;53.556;9.944;2023-02-28T01:28:41;3.47;;;1.88;;
17141;SDS011;32805;53.556;9.944;2023-02-28T01:31:10;2.58;;;2.05;;
17141;SDS011;32805;53.556;9.944;2023-02-28T01:33:38;3.78;;;2.00;;
17141;SDS011;32805;53.556;9.944;2023-02-28T01:36:07;3.85;;;2.30;;
17141;SDS011;32805;53.556;9.944;2023-02-28T01:38:39;2.88;;;1.80;;
17141;SDS011;32805;53.556;9.944;2023-02-28T01:41:07;2.97;;;1.92;;
17141;SDS011;32805;53.556;9.944;2023-02-28T01:46:29;3.28;;;1.80;;
17141;SDS011;32805;53.556;9.944;2023-02-28T01:49:00;3.72;;;2.40;;
17141;SDS011;32805;53.556;9.944;2023-02-28T01:51:33;3.63;;;1.80;;
17141;SDS011;32805;53.556;9.944;2023-02-28T01:54:07;3.63;;;2.05;;
17141;SDS011;32805;53.556;9.944;2023-02-28T01:56:41;2.83;;;2.10;;
17141;SDS011;32805;53.556;9.944;2023-02-28T01:59:12;3.55;;;2.33;;
17141;SDS011;32805;53.556;9.944;2023-02-28T02:01:46;4.47;;;2.20;;
17141;SDS011;32805;53.556;9.944;2023-02-28T02:04:13;4.35;;;2.50;;
17141;SDS011;32805;53.556;9.944;2023-02-28T02:06:42;8.23;;;3.08;;
17141;SDS011;32805;53.556;9.944;2023-02-28T02:09:14;4.93;;;2.45;;
17141;SDS011;32805;53.556;9.944;2023-02-28T02:11:42;5.47;;;2.97;;
17141;SDS011;32805;53.556;9.944;2023-02-28T02:14:20;8.77;;;3.20;;
17141;SDS011;32805;53.556;9.944;2023-02-28T02:17:09;4.68;;;2.50;;
17141;SDS011;32805;53.556;9.944;2023-02-28T02:19:57;5.07;;;2.92;;
17141;SDS011;32805;53.556;9.944;2023-02-28T02:22:57;7.22;;;3.35;;
17141;SDS011;32805;53.556;9.944;2023-02-28T02:25:46;6.75;;;3.72;;
17141;SDS011;32805;53.556;9.944;2023-02-28T02:28:25;7.13;;;3.00;;
17141;SDS011;32805;53.556;9.944;2023-02-28T02:34:24;7.05;;;3.35;;
17141;SDS011;32805;53.556;9.944;2023-02-28T02:36:59;5.25;;;3.40;;
17141;SDS011;32805;53.556;9.944;2023-02-28T02:39:38;6.72;;;3.25;;
17141;SDS011;32805;53.556;9.944;2023-02-28T02:42:16;6.88;;;3.95;;
17141;SDS011;32805;53.556;9.944;2023-02-28T02:44:49;7.22;;;3.10;;
17141;SDS011;32805;53.556;9.944;2023-02-28T02:47:23;8.48;;;3.70;;
17141;SDS011;32805;53.556;9.944;2023-02-28T02:49:55;6.00;;;3.38;;
17141;SDS011;32805;53.556;9.944;2023-02-28T02:52:25;8.82;;;3.55;;
17141;SDS011;32805;53.556;9.944;2023-02-28T02:54:57;8.30;;;3.40;;
17141;SDS011;32805;53.556;9.944;2023-02-28T02:57:27;5.47;;;2.90;;
17141;SDS011;32805;53.556;9.944;2023-02-28T02:59:59;5.30;;;3.45;;
17141;SDS011;32805;53.556;9.944;2023-02-28T03:02:29;8.88;;;3.88;;
17141;SDS011;32805;53.556;9.944;2023-02-28T03:05:02;7.47;;;3.95;;
17141;SDS011;32805;53.556;9.944;2023-02-28T03:07:33;11.57;;;6.18;;
17141;SDS011;32805;53.556;9.944;2023-02-28T03:10:01;15.55;;;7.72;;
17141;SDS011;32805;53.556;9.944;2023-02-28T03:12:31;18.35;;;8.35;;
17141;SDS011;32805;53.556;9.944;2023-02-28T03:15:07;18.42;;;9.55;;
17141;SDS011;32805;53.556;9.944;2023-02-28T03:17:44;19.63;;;8.88;;
17141;SDS011;32805;53.556;9.944;2023-02-28T03:20:24;12.30;;;6.50;;
17141;SDS011;32805;53.556;9.944;2023-02-28T03:23:01;11.32;;;5.85;;
17141;SDS011;32805;53.556;9.944;2023-02-28T03:25:37;11.20;;;5.63;;
17141;SDS011;32805;53.556;9.944;2023-02-28T03:28:14;8.63;;;5.00;;
17141;SDS011;32805;53.556;9.944;2023-02-28T03:30:47;12.65;;;5.38;;
17141;SDS011;32805;53.556;9.944;2023-02-28T03:33:20;11.95;;;5.22;;
17141;SDS011;32805;53.556;9.944;2023-02-28T03:35:53;11.30;;;5.35;;
17141;SDS011;32805;53.556;9.944;2023-02-28T03:38:27;11.05;;;5.90;;
17141;SDS011;32805;53.556;9.944;2023-02-28T03:41:00;12.90;;;6.38;;
17141;SDS011;32805;53.556;9.944;2023-02-28T03:43:33;13.20;;;6.32;;
17141;SDS011;32805;53.556;9.944;2023-02-28T03:46:05;14.32;;;6.05;;
17141;SDS011;32805;53.556;9.944;2023-02-28T03:48:38;9.95;;;5.60;;
17141;SDS011;32805;53.556;9.944;2023-02-28T03:51:10;14.15;;;5.63;;
17141;SDS011;32805;53.556;9.944;2023-02-28T03:53:42;8.10;;;4.80;;
17141;SDS011;32805;53.556;9.944;2023-02-28T03:56:14;8.48;;;4.72;;
17141;SDS011;32805;53.556;9.944;2023-02-28T03:58:47;7.10;;;4.32;;
17141;SDS011;32805;53.556;9.944;2023-02-28T04:01:20;4.85;;;3.95;;
17141;SDS011;32805;53.556;9.944;2023-02-28T04:03:51;8.95;;;3.92;;
17141;SDS011;32805;53.556;9.944;2023-02-28T04:06:20;8.35;;;4.15;;
17141;SDS011;32805;53.556;9.944;2023-02-28T04:08:50;7.28;;;4.50;;
17141;SDS011;32805;53.556;9.944;2023-02-28T04:11:22;8.85;;;4.38;;
17141;SDS011;32805;53.556;9.944;2023-02-28T04:13:51;6.95;;;3.80;;
17141;SDS011;32805;53.556;9.944;2023-02-28T04:16:18;8.00;;;4.38;;
17141;SDS011;32805;53.556;9.944;2023-02-28T04:19:00;5.95;;;3.53;;
17141;SDS011;32805;53.556;9.944;2023-02-28T04:21:30;5.53;;;3.67;;
17141;SDS011;32805;53.556;9.944;2023-02-28T04:23:59;9.30;;;4.00;;
17141;SDS011;32805;53.556;9.944;2023-02-28T04:26:28;6.80;;;3.90;;
17141;SDS011;32805;53.556;9.944;2023-02-28T04:28:57;8.43;;;5.28;;
17141;SDS011;32805;53.556;9.944;2023-02-28T04:31:25;7.82;;;4.68;;
17141;SDS011;32805;53.556;9.944;2023-02-28T04:33:54;7.30;;;4.15;;
17141;SDS011;32805;53.556;9.944;2023-02-28T04:36:21;8.05;;;4.63;;
17141;SDS011;32805;53.556;9.944;2023-02-28T04:38:51;6.13;;;5.10;;
17141;SDS011;32805;53.556;9.944;2023-02-28T04:41:20;7.57;;;4.72;;
17141;SDS011;32805;53.556;9.944;2023-02-28T04:43:49;7.13;;;4.28;;
17141;SDS011;32805;53.556;9.944;2023-02-28T04:46:18;4.95;;;4.25;;
17141;SDS011;32805;53.556;9.944;2023-02-28T04:48:46;5.45;;;3.95;;
17141;SDS011;32805;53.556;9.944;2023-02-28T04:51:14;7.15;;;4.40;;
17141;SDS011;32805;53.556;9.944;2023-02-28T04:53:43;8.35;;;4.20;;
17141;SDS011;32805;53.556;9.944;2023-02-28T04:56:13;6.40;;;4.32;;
17141;SDS011;32805;53.556;9.944;2023-02-28T04:58:41;9.23;;;4.43;;
17141;SDS011;32805;53.556;9.944;2023-02-28T05:01:16;7.93;;;4.55;;
17141;SDS011;32805;53.556;9.944;2023-02-28T05:03:45;7.93;;;4.35;;
17141;SDS011;32805;53.556;9.944;2023-02-28T05:06:14;8.50;;;4.45;;
17141;SDS011;32805;53.556;9.944;2023-02-28T05:08:42;8.68;;;4.63;;
17141;SDS011;32805;53.556;9.944;2023-02-28T05:11:13;6.20;;;4.38;;
17141;SDS011;32805;53.556;9.944;2023-02-28T05:13:43;6.47;;;4.63;;
17141;SDS011;32805;53.556;9.944;2023-02-28T05:16:11;7.93;;;4.82;;
17141;SDS011;32805;53.556;9.944;2023-02-28T05:18:39;6.38;;;4.57;;
17141;SDS011;32805;53.556;9.944;2023-02-28T05:21:14;8.52;;;4.93;;
17141;SDS011;32805;53.556;9.944;2023-02-28T05:23:51;5.70;;;4.82;;
17141;SDS011;32805;53.556;9.944;2023-02-28T05:26:21;7.75;;;5.43;;
17141;SDS011;32805;53.556;9.944;2023-02-28T05:28:49;6.93;;;4.72;;
17141;SDS011;32805;53.556;9.944;2023-02-28T05:31:16;7.43;;;5.43;;
17141;SDS011;32805;53.556;9.944;2023-02-28T05:33:44;8.05;;;5.05;;
17141;SDS011;32805;53.556;9.944;2023-02-28T05:36:12;8.48;;;5.35;;
17141;SDS011;32805;53.556;9.944;2023-02-28T05:38:40;7.82;;;5.40;;
17141;SDS011;32805;53.556;9.944;2023-02-28T05:41:08;7.32;;;4.85;;
17141;SDS011;32805;53.556;9.944;2023-02-28T05:43:38;7.22;;;5.30;;
17141;SDS011;32805;53.556;9.944;2023-02-28T05:46:06;6.80;;;5.30;;
17141;SDS011;32805;53.556;9.944;2023-02-28T05:48:35;8.35;;;5.95;;
17141;SDS011;32805;53.556;9.944;2023-02-28T05:51:04;10.35;;;6.03;;
17141;SDS011;32805;53.556;9.944;2023-02-28T05:53:33;9.70;;;5.88;;
17141;SDS011;32805;53.556;9.944;2023-02-28T05:56:01;8.93;;;6.38;;
17141;SDS011;32805;53.556;9.944;2023-02-28T05:58:29;11.05;;;6.32;;
17141;SDS011;32805;53.556;9.944;2023-02-28T06:00:59;10.77;;;5.90;;
17141;SDS011;32805;53.556;9.944;2023-02-28T06:03:27;9.23;;;5.40;;
17141;SDS011;32805;53.556;9.944;2023-02-28T06:05:55;10.70;;;5.45;;
17141;SDS011;32805;53.556;9.944;2023-02-28T06:08:23;9.15;;;6.28;;
17141;SDS011;32805;53.556;9.944;2023-02-28T06:10:51;9.25;;;5.60;;
17141;SDS011;32805;53.556;9.944;2023-02-28T06:13:19;7.88;;;5.80;;
17141;SDS011;32805;53.556;9.944;2023-02-28T06:15:46;8.82;;;5.97;;
17141;SDS011;32805;53.556;9.944;2023-02-28T06:18:15;9.13;;;5.93;;
17141;SDS011;32805;53.556;9.944;2023-02-28T06:20:43;9.82;;;5.40;;
17141;SDS011;32805;53.556;9.944;2023-02-28T06:23:10;11.80;;;5.70;;
17141;SDS011;32805;53.556;9.944;2023-02-28T06:25:38;9.68;;;5.65;;
17141;SDS011;32805;53.556;9.944;2023-02-28T06:28:06;7.88;;;5.40;;
17141;SDS011;32805;53.556;9.944;2023-02-28T06:30:33;8.05;;;5.97;;
17141;SDS011;32805;53.556;9.944;2023-02-28T06:33:03;8.43;;;5.65;;
17141;SDS011;32805;53.556;9.944;2023-02-28T06:35:32;12.20;;;6.78;;
17141;SDS011;32805;53.556;9.944;2023-02-28T06:37:59;10.73;;;6.30;;
17141;SDS011;32805;53.556;9.944;2023-02-28T06:40:27;10.10;;;6.80;;
17141;SDS011;32805;53.556;9.944;2023-02-28T06:42:58;16.40;;;7.25;;
17141;SDS011;32805;53.556;9.944;2023-02-28T06:45:25;12.50;;;7.13;;
17141;SDS011;32805;53.556;9.944;2023-02-28T06:47:53;13.18;;;7.50;;
17141;SDS011;32805;53.556;9.944;2023-02-28T06:50:20;17.23;;;7.80;;
17141;SDS011;32805;53.556;9.944;2023-02-28T06:52:49;14.98;;;7.57;;
17141;SDS011;32805;53.556;9.944;2023-02-28T06:55:20;14.50;;;7.65;;
17141;SDS011;32805;53.556;9.944;2023-02-28T06:57:47;16.75;;;7.72;;
17141;SDS011;32805;53.556;9.944;2023-02-28T07:00:16;18.65;;;7.88;;
17141;SDS011;32805;53.556;9.944;2023-02-28T07:02:45;14.73;;;7.50;;
17141;SDS011;32805;53.556;9.944;2023-02-28T07:05:13;12.20;;;7.15;;
17141;SDS011;32805;53.556;9.944;2023-02-28T07:07:40;13.57;;;6.88;;
17141;SDS011;32805;53.556;9.944;2023-02-28T07:10:12;14.45;;;6.85;;
17141;SDS011;32805;53.556;9.944;2023-02-28T07:12:45;11.43;;;6.90;;
17141;SDS011;32805;53.556;9.944;2023-02-28T07:15:13;13.27;;;6.85;;
17141;SDS011;32805;53.556;9.944;2023-02-28T07:17:41;11.48;;;7.00;;
17141;SDS011;32805;53.556;9.944;2023-02-28T07:20:09;9.15;;;6.03;;
17141;SDS011;32805;53.556;9.944;2023-02-28T07:22:37;10.80;;;5.90;;
17141;SDS011;32805;53.556;9.944;2023-02-28T07:25:06;10.30;;;5.90;;
17141;SDS011;32805;53.556;9.944;2023-02-28T07:27:35;13.15;;;6.38;;
17141;SDS011;32805;53.556;9.944;2023-02-28T07:30:03;11.32;;;6.47;;
17141;SDS011;32805;53.556;9.944;2023-02-28T07:32:32;9.02;;;6.18;;
17141;SDS011;32805;53.556;9.944;2023-02-28T07:34:59;10.48;;;6.05;;
17141;SDS011;32805;53.556;9.944;2023-02-28T07:37:27;11.50;;;6.05;;
17141;SDS011;32805;53.556;9.944;2023-02-28T07:39:57;7.13;;;5.80;;
17141;SDS011;32805;53.556;9.944;2023-02-28T07:42:25;10.32;;;6.70;;
17141;SDS011;32805;53.556;9.944;2023-02-28T07:44:54;8.60;;;6.32;;
17141;SDS011;32805;53.556;9.944;2023-02-28T07:47:21;13.02;;;6.82;;
17141;SDS011;32805;53.556;9.944;2023-02-28T07:49:50;10.95;;;7.05;;
17141;SDS011;32805;53.556;9.944;2023-02-28T07:52:19;7.95;;;6.43;;
17141;SDS011;32805;53.556;9.944;2023-02-28T07:54:46;9.32;;;7.10;;
17141;SDS011;32805;53.556;9.944;2023-02-28T07:57:14;10.85;;;7.13;;
17141;SDS011;32805;53.556;9.944;2023-02-28T07:59:42;11.05;;;6.63;;
17141;SDS011;32805;53.556;9.944;2023-02-28T08:02:12;13.85;;;8.00;;
17141;SDS011;32805;53.556;9.944;2023-02-28T08:04:41;11.82;;;5.97;;
17141;SDS011;32805;53.556;9.944;2023-02-28T08:07:09;9.60;;;5.60;;
17141;SDS011;32805;53.556;9.944;2023-02-28T08:09:39;8.50;;;6.13;;
17141;SDS011;32805;53.556;9.944;2023-02-28T08:12:07;11.93;;;6.10;;
17141;SDS011;32805;53.556;9.944;2023-02-28T08:14:36;8.82;;;4.78;;
17141;SDS011;32805;53.556;9.944;2023-02-28T08:17:04;11.63;;;4.60;;
17141;SDS011;32805;53.556;9.944;2023-02-28T08:19:32;6.55;;;3.92;;
17141;SDS011;32805;53.556;9.944;2023-02-28T08:22:00;7.03;;;4.18;;
17141;SDS011;32805;53.556;9.944;2023-02-28T08:24:28;5.18;;;4.05;;
17141;SDS011;32805;53.556;9.944;2023-02-28T08:26:56;6.38;;;4.10;;
17141;SDS011;32805;53.556;9.944;2023-02-28T08:29:24;7.15;;;3.55;;
17141;SDS011;32805;53.556;9.944;2023-02-28T08:31:51;4.38;;;3.03;;
17141;SDS011;32805;53.556;9.944;2023-02-28T08:34:19;4.18;;;3.28;;
17141;SDS011;32805;53.556;9.944;2023-02-28T08:36:48;3.60;;;2.42;;
17141;SDS011;32805;53.556;9.944;2023-02-28T08:39:16;7.68;;;2.92;;
17141;SDS011;32805;53.556;9.944;2023-02-28T08:41:44;6.63;;;2.80;;
17141;SDS011;32805;53.556;9.944;2023-02-28T08:44:16;4.15;;;2.47;;
17141;SDS011;32805;53.556;9.944;2023-02-28T08:46:44;3.95;;;2.30;;
17141;SDS011;32805;53.556;9.944;2023-02-28T08:49:11;5.00;;;2.25;;
17141;SDS011;32805;53.556;9.944;2023-02-28T08:51:39;2.63;;;1.95;;
17141;SDS011;32805;53.556;9.944;2023-02-28T08:54:08;3.85;;;1.95;;
17141;SDS011;32805;53.556;9.944;2023-02-28T08:56:38;3.33;;;2.15;;
17141;SDS011;32805;53.556;9.944;2023-02-28T08:59:06;4.47;;;1.80;;
17141;SDS011;32805;53.556;9.944;2023-02-28T09:01:36;3.83;;;2.08;;
17141;SDS011;32805;53.556;9.944;2023-02-28T09:04:04;4.07;;;2.20;;
17141;SDS011;32805;53.556;9.944;2023-02-28T09:06:33;3.83;;;2.22;;
17141;SDS011;32805;53.556;9.944;2023-02-28T09:09:01;4.18;;;2.10;;
17141;SDS011;32805;53.556;9.944;2023-02-28T09:11:33;2.00;;;1.90;;
17141;SDS011;32805;53.556;9.944;2023-02-28T09:14:02;4.25;;;2.72;;
17141;SDS011;32805;53.556;9.944;2023-02-28T09:16:31;5.03;;;2.65;;
17141;SDS011;32805;53.556;9.944;2023-02-28T09:19:00;3.08;;;2.10;;
17141;SDS011;32805;53.556;9.944;2023-02-28T09:21:27;4.05;;;2.40;;
17141;SDS011;32805;53.556;9.944;2023-02-28T09:23:55;2.30;;;1.10;;
17141;SDS011;32805;53.556;9.944;2023-02-28T09:26:24;1.63;;;1.33;;
17141;SDS011;32805;53.556;9.944;2023-02-28T09:29:05;2.20;;;1.60;;
17141;SDS011;32805;53.556;9.944;2023-02-28T09:31:33;2.28;;;1.40;;
17141;SDS011;32805;53.556;9.944;2023-02-28T09:34:01;1.42;;;1.23;;
17141;SDS011;32805;53.556;9.944;2023-02-28T09:36:29;2.10;;;1.20;;
17141;SDS011;32805;53.556;9.944;2023-02-28T09:39:10;2.33;;;1.67;;
17141;SDS011;32805;53.556;9.944;2023-02-28T09:41:39;4.70;;;2.28;;
17141;SDS011;32805;53.556;9.944;2023-02-28T09:44:16;4.72;;;2.63;;
17141;SDS011;32805;53.556;9.944;2023-02-28T09:46:50;3.45;;;1.70;;
17141;SDS011;32805;53.556;9.944;2023-02-28T09:49:22;5.95;;;2.67;;
17141;SDS011;32805;53.556;9.944;2023-02-28T09:51:55;4.35;;;2.30;;
17141;SDS011;32805;53.556;9.944;2023-02-28T09:54:27;3.90;;;2.15;;
17141;SDS011;32805;53.556;9.944;2023-02-28T09:56:58;6.82;;;2.53;;
17141;SDS011;32805;53.556;9.944;2023-02-28T09:59:38;3.50;;;1.70;;
17141;SDS011;32805;53.556;9.944;2023-02-28T10:02:15;4.50;;;1.88;;
17141;SDS011;32805;53.556;9.944;2023-02-28T10:04:50;2.67;;;1.60;;
17141;SDS011;32805;53.556;9.944;2023-02-28T10:07:25;4.63;;;2.42;;
17141;SDS011;32805;53.556;9.944;2023-02-28T10:10:06;6.72;;;2.92;;
17141;SDS011;32805;53.556;9.944;2023-02-28T10:12:44;4.85;;;2.53;;
17141;SDS011;32805;53.556;9.944;2023-02-28T10:15:15;4.00;;;2.33;;
17141;SDS011;32805;53.556;9.944;2023-02-28T10:17:45;6.75;;;3.20;;
17141;SDS011;32805;53.556;9.944;2023-02-28T10:20:26;6.32;;;3.28;;
17141;SDS011;32805;53.556;9.944;2023-02-28T10:22:58;3.88;;;2.40;;
17141;SDS011;32805;53.556;9.944;2023-02-28T10:25:34;4.43;;;1.85;;
17141;SDS011;32805;53.556;9.944;2023-02-28T10:28:08;2.35;;;1.60;;
17141;SDS011;32805;53.556;9.944;2023-02-28T10:30:40;3.20;;;1.50;;
17141;SDS011;32805;53.556;9.944;2023-02-28T10:33:14;3.22;;;1.85;;
17141;SDS011;32805;53.556;9.944;2023-02-28T10:35:46;4.97;;;3.15;;
17141;SDS011;32805;53.556;9.944;2023-02-28T10:38:16;5.00;;;3.08;;
17141;SDS011;32805;53.556;9.944;2023-02-28T10:40:45;4.10;;;2.20;;
17141;SDS011;32805;53.556;9.944;2023-02-28T10:43:18;4.47;;;2.25;;
17141;SDS011;32805;53.556;9.944;2023-02-28T10:45:57;3.55;;;2.03;;
17141;SDS011;32805;53.556;9.944;2023-02-28T10:48:30;6.15;;;2.90;;
17141;SDS011;32805;53.556;9.944;2023-02-28T10:51:01;1.88;;;1.48;;
17141;SDS011;32805;53.556;9.944;2023-02-28T10:53:31;6.38;;;3.50;;
17141;SDS011;32805;53.556;9.944;2023-02-28T10:56:22;5.68;;;2.90;;
17141;SDS011;32805;53.556;9.944;2023-02-28T10:58:52;10.55;;;4.97;;
17141;SDS011;32805;53.556;9.944;2023-02-28T11:01:24;6.60;;;3.53;;
17141;SDS011;32805;53.556;9.944;2023-02-28T11:04:01;6.05;;;3.00;;
17141;SDS011;32805;53.556;9.944;2023-02-28T11:06:30;9.23;;;4.35;;
17141;SDS011;32805;53.556;9.944;2023-02-28T11:08:59;3.08;;;1.73;;
17141;SDS011;32805;53.556;9.944;2023-02-28T11:11:30;4.18;;;1.55;;
17141;SDS011;32805;53.556;9.944;2023-02-28T11:14:14;8.82;;;5.00;;
17141;SDS011;32805;53.556;9.944;2023-02-28T11:16:47;5.20;;;3.17;;
17141;SDS011;32805;53.556;9.944;2023-02-28T11:19:18;6.15;;;2.83;;
17141;SDS011;32805;53.556;9.944;2023-02-28T11:21:52;10.43;;;4.97;;
17141;SDS011;32805;53.556;9.944;2023-02-28T11:24:23;8.55;;;4.50;;
17141;SDS011;32805;53.556;9.944;2023-02-28T11:26:53;4.90;;;3.03;;
17141;SDS011;32805;53.556;9.944;2023-02-28T11:29:23;9.82;;;4.60;;
17141;SDS011;32805;53.556;9.944;2023-02-28T11:32:04;4.90;;;2.50;;
17141;SDS011;32805;53.556;9.944;2023-02-28T11:34:39;4.80;;;1.90;;
17141;SDS011;32805;53.556;9.944;2023-02-28T11:37:10;2.13;;;1.48;;
17141;SDS011;32805;53.556;9.944;2023-02-28T11:39:39;2.47;;;1.65;;
17141;SDS011;32805;53.556;9.944;2023-02-28T11:42:11;1.70;;;1.48;;
17141;SDS011;32805;53.556;9.944;2023-02-28T11:45:03;2.80;;;1.92;;
17141;SDS011;32805;53.556;9.944;2023-02-28T11:47:44;1.70;;;1.55;;
17141;SDS011;32805;53.556;9.944;2023-02-28T11:50:27;1.90;;;1.38;;
17141;SDS011;32805;53.556;9.944;2023-02-28T11:53:10;2.92;;;1.98;;
17141;SDS011;32805;53.556;9.944;2023-02-28T11:55:48;3.15;;;1.60;;
17141;SDS011;32805;53.556;9.944;2023-02-28T11:58:25;2.10;;;1.63;;
17141;SDS011;32805;53.556;9.944;2023-02-28T12:03:52;2.63;;;1.45;;
17141;SDS011;32805;53.556;9.944;2023-02-28T12:06:27;2.85;;;1.70;;
17141;SDS011;32805;53.556;9.944;2023-02-28T12:09:02;2.67;;;1.77;;
17141;SDS011;32805;53.556;9.944;2023-02-28T12:11:45;3.45;;;2.00;;
17141;SDS011;32805;53.556;9.944;2023-02-28T12:17:27;2.28;;;1.80;;
17141;SDS011;32805;53.556;9.944;2023-02-28T12:20:08;1.85;;;1.70;;
17141;SDS011;32805;53.556;9.944;2023-02-28T12:22:47;2.78;;;1.77;;
17141;SDS011;32805;53.556;9.944;2023-02-28T12:25:43;2.88;;;1.63;;
17141;SDS011;32805;53.556;9.944;2023-02-28T12:28:23;2.85;;;1.80;;
17141;SDS011;32805;53.556;9.944;2023-02-28T12:30:56;2.00;;;1.60;;
17141;SDS011;32805;53.556;9.944;2023-02-28T12:33:31;2.70;;;1.63;;
17141;SDS011;32805;53.556;9.944;2023-02-28T12:36:04;3.50;;;1.63;;
17141;SDS011;32805;53.556;9.944;2023-02-28T12:38:39;3.88;;;1.90;;
17141;SDS011;32805;53.556;9.944;2023-02-28T12:41:11;2.15;;;1.92;;
17141;SDS011;32805;53.556;9.944;2023-02-28T12:43:42;3.15;;;2.15;;
17141;SDS011;32805;53.556;9.944;2023-02-28T12:46:12;2.60;;;1.80;;
17141;SDS011;32805;53.556;9.944;2023-02-28T12:48:46;3.70;;;1.80;;
17141;SDS011;32805;53.556;9.944;2023-02-28T12:51:17;2.95;;;1.67;;
17141;SDS011;32805;53.556;9.944;2023-02-28T12:53:49;3.55;;;1.92;;
17141;SDS011;32805;53.556;9.944;2023-02-28T12:56:28;2.85;;;1.60;;
17141;SDS011;32805;53.556;9.944;2023-02-28T12:59:01;3.03;;;1.88;;
17141;SDS011;32805;53.556;9.944;2023-02-28T13:01:40;5.15;;;2.10;;
17141;SDS011;32805;53.556;9.944;2023-02-28T13:04:21;3.80;;;1.92;;
17141;SDS011;32805;53.556;9.944;2023-02-28T13:07:15;2.25;;;1.90;;
17141;SDS011;32805;53.556;9.944;2023-02-28T13:09:56;2.78;;;1.85;;
17141;SDS011;32805;53.556;9.944;2023-02-28T13:12:25;2.67;;;1.80;;
17141;SDS011;32805;53.556;9.944;2023-02-28T13:15:00;3.38;;;1.67;;
17141;SDS011;32805;53.556;9.944;2023-02-28T13:17:32;5.43;;;1.77;;
17141;SDS011;32805;53.556;9.944;2023-02-28T13:20:00;2.97;;;1.83;;
17141;SDS011;32805;53.556;9.944;2023-02-28T13:22:40;2.95;;;1.73;;
17141;SDS011;32805;53.556;9.944;2023-02-28T13:31:41;4.55;;;2.03;;
17141;SDS011;32805;53.556;9.944;2023-02-28T13:35:14;3.85;;;1.75;;
17141;SDS011;32805;53.556;9.944;2023-02-28T13:44:07;2.72;;;1.77;;
17141;SDS011;32805;53.556;9.944;2023-02-28T13:47:13;3.28;;;1.75;;
17141;SDS011;32805;53.556;9.944;2023-02-28T13:49:43;2.45;;;1.85;;
17141;SDS011;32805;53.556;9.944;2023-02-28T13:52:12;3.53;;;1.75;;
17141;SDS011;32805;53.556;9.944;2023-02-28T13:54:52;1.73;;;1.50;;
17141;SDS011;32805;53.556;9.944;2023-02-28T13:57:30;3.17;;;1.60;;
17141;SDS011;32805;53.556;9.944;2023-02-28T14:00:09;3.65;;;1.80;;
17141;SDS011;32805;53.556;9.944;2023-02-28T14:02:52;3.20;;;2.35;;
17141;SDS011;32805;53.556;9.944;2023-02-28T14:05:33;2.45;;;1.70;;
17141;SDS011;32805;53.556;9.944;2023-02-28T14:08:04;3.17;;;1.63;;
17141;SDS011;32805;53.556;9.944;2023-02-28T14:10:41;3.17;;;1.92;;
17141;SDS011;32805;53.556;9.944;2023-02-28T14:13:12;3.17;;;2.35;;
17141;SDS011;32805;53.556;9.944;2023-02-28T14:16:03;3.20;;;1.70;;
17141;SDS011;32805;53.556;9.944;2023-02-28T14:18:33;2.75;;;1.58;;
17141;SDS011;32805;53.556;9.944;2023-02-28T14:21:10;3.42;;;2.03;;
17141;SDS011;32805;53.556;9.944;2023-02-28T14:23:46;2.67;;;1.90;;
17141;SDS011;32805;53.556;9.944;2023-02-28T14:26:37;2.95;;;1.80;;
17141;SDS011;32805;53.556;9.944;2023-02-28T14:29:21;2.05;;;1.85;;
17141;SDS011;32805;53.556;9.944;2023-02-28T14:32:01;4.45;;;2.08;;
17141;SDS011;32805;53.556;9.944;2023-02-28T14:34:37;4.15;;;2.30;;
17141;SDS011;32805;53.556;9.944;2023-02-28T14:37:13;2.75;;;1.80;;
17141;SDS011;32805;53.556;9.944;2023-02-28T14:39:43;2.17;;;1.77;;
17141;SDS011;32805;53.556;9.944;2023-02-28T14:45:04;3.63;;;1.88;;
17141;SDS011;32805;53.556;9.944;2023-02-28T14:47:32;5.13;;;1.80;;
17141;SDS011;32805;53.556;9.944;2023-02-28T14:50:03;4.07;;;1.95;;
17141;SDS011;32805;53.556;9.944;2023-02-28T14:52:32;3.08;;;2.00;;
17141;SDS011;32805;53.556;9.944;2023-02-28T14:55:01;4.88;;;2.05;;
17141;SDS011;32805;53.556;9.944;2023-02-28T14:57:38;2.28;;;1.67;;
17141;SDS011;32805;53.556;9.944;2023-02-28T15:00:11;3.45;;;2.20;;
17141;SDS011;32805;53.556;9.944;2023-02-28T15:02:43;2.88;;;1.92;;
17141;SDS011;32805;53.556;9.944;2023-02-28T15:05:18;2.72;;;1.90;;
17141;SDS011;32805;53.556;9.944;2023-02-28T15:08:01;3.05;;;2.30;;
17141;SDS011;32805;53.556;9.944;2023-02-28T15:10:31;2.95;;;1.83;;
17141;SDS011;32805;53.556;9.944;2023-02-28T15:13:02;2.88;;;1.60;;
17141;SDS011;32805;53.556;9.944;2023-02-28T15:15:35;5.95;;;2.15;;
17141;SDS011;32805;53.556;9.944;2023-02-28T15:18:29;4.72;;;2.25;;
17141;SDS011;32805;53.556;9.944;2023-02-28T15:21:03;3.90;;;1.90;;
17141;SDS011;32805;53.556;9.944;2023-02-28T15:23:35;3.95;;;1.80;;
17141;SDS011;32805;53.556;9.944;2023-02-28T15:26:04;3.00;;;1.95;;
17141;SDS011;32805;53.556;9.944;2023-02-28T15:28:34;2.55;;;2.05;;
17141;SDS011;32805;53.556;9.944;2023-02-28T15:31:02;4.90;;;2.00;;
17141;SDS011;32805;53.556;9.944;2023-02-28T15:33:51;3.90;;;2.33;;
17141;SDS011;32805;53.556;9.944;2023-02-28T15:36:19;3.60;;;2.15;;
17141;SDS011;32805;53.556;9.944;2023-02-28T15:38:54;4.35;;;1.95;;
17141;SDS011;32805;53.556;9.944;2023-02-28T15:41:36;3.90;;;2.00;;
17141;SDS011;32805;53.556;9.944;2023-02-28T15:44:16;3.33;;;1.83;;